Time;durP1;ratioP1;P1;durP2;ratioP2;P2;SDS_P1;SDS_P2;PMS_P1;PMS_P2;Temp;Humidity;BMP_temperature;BMP_pressure;BME280_temperature;BME280_humidity;BME280_pressure;Samples;Min_cycle;Max_cycle;Signal;HPM_P1;HPM_P2
2023/07/04 00:00:09;;;;;;;6.70;2.75;;;;;;;;;;2072338;28;20022;-77
2023/07/04 00:01:28;;;;;;;8.05;2.35;;;;;;;;;;2063335;28;20026;-76
2023/07/04 00:02:49;;;;;;;5.40;2.10;;;;;;;;;;2067011;28;20124;-77
2023/07/04 00:04:08;;;;;;;11.90;2.42;;;;;;;;;;2062184;28;20038;-77
2023/07/04 00:05:28;;;;;;;9.93;2.40;;;;;;;;;;2065008;28;20038;-76
2023/07/04 00:06:47;;;;;;;10.57;2.92;;;;;;;;;;2071097;28;20077;-76
2023/07/04 00:08:06;;;;;;;6.13;2.40;;;;;;;;;;2063252;28;20034;-77
2023/07/04 00:09:25;;;;;;;5.25;1.90;;;;;;;;;;2069741;28;20034;-76
2023/07/04 00:10:44;;;;;;;5.07;1.50;;;;;;;;;;2071228;28;20571;-77
2023/07/04 00:12:03;;;;;;;3.75;1.90;;;;;;;;;;2062867;28;20046;-77
2023/07/04 00:13:22;;;;;;;8.50;2.03;;;;;;;;;;2068121;28;20057;-77
2023/07/04 00:14:43;;;;;;;8.85;2.25;;;;;;;;;;2073219;28;20450;-77
2023/07/04 00:16:05;;;;;;;10.73;2.45;;;;;;;;;;2073476;28;20026;-77
2023/07/04 00:17:25;;;;;;;10.15;2.08;;;;;;;;;;2072804;28;20026;-77
2023/07/04 00:18:44;;;;;;;4.93;2.22;;;;;;;;;;2071018;28;20582;-77
2023/07/04 00:20:04;;;;;;;5.78;1.80;;;;;;;;;;2071190;28;20475;-77
2023/07/04 00:21:24;;;;;;;3.55;2.00;;;;;;;;;;2062871;28;20022;-76
2023/07/04 00:22:44;;;;;;;5.40;1.92;;;;;;;;;;2065089;28;20038;-77
2023/07/04 00:24:03;;;;;;;4.63;2.00;;;;;;;;;;2070536;28;20798;-77
2023/07/04 00:25:22;;;;;;;5.55;1.52;;;;;;;;;;2072772;28;20030;-77
2023/07/04 00:26:42;;;;;;;4.55;2.30;;;;;;;;;;2071134;28;20037;-77
2023/07/04 00:28:05;;;;;;;7.25;2.38;;;;;;;;;;2072100;28;20037;-76
2023/07/04 00:29:24;;;;;;;7.68;2.45;;;;;;;;;;2072678;28;20045;-76
2023/07/04 00:30:42;;;;;;;3.00;1.90;;;;;;;;;;2063173;28;20496;-75
2023/07/04 00:32:01;;;;;;;5.10;2.20;;;;;;;;;;2067191;28;20030;-76
2023/07/04 00:33:22;;;;;;;4.07;2.25;;;;;;;;;;2070161;28;20025;-77
2023/07/04 00:34:45;;;;;;;8.57;2.22;;;;;;;;;;2054642;28;20039;-76
2023/07/04 00:36:05;;;;;;;4.95;1.77;;;;;;;;;;2061491;28;20476;-76
2023/07/04 00:37:24;;;;;;;5.53;1.85;;;;;;;;;;2062968;28;20098;-76
2023/07/04 00:38:44;;;;;;;8.52;2.63;;;;;;;;;;2064350;28;20379;-77
2023/07/04 00:40:07;;;;;;;4.40;2.03;;;;;;;;;;2059836;28;20030;-77
2023/07/04 00:41:27;;;;;;;7.85;2.28;;;;;;;;;;2063215;28;20042;-76
2023/07/04 00:42:46;;;;;;;7.78;2.55;;;;;;;;;;2062256;28;20053;-76
2023/07/04 00:44:12;;;;;;;5.45;2.10;;;;;;;;;;2061312;28;20030;-76
2023/07/04 00:45:33;;;;;;;2.83;1.60;;;;;;;;;;2061297;28;20147;-76
2023/07/04 00:47:10;;;;;;;3.28;1.85;;;;;;;;;;2054452;28;20542;-76
2023/07/04 00:48:29;;;;;;;7.25;1.83;;;;;;;;;;2063423;28;20484;-76
2023/07/04 00:49:56;;;;;;;5.50;1.88;;;;;;;;;;2062760;28;20129;-77
2023/07/04 00:51:21;;;;;;;3.60;1.80;;;;;;;;;;2063037;28;20105;-76
2023/07/04 00:52:40;;;;;;;4.70;1.90;;;;;;;;;;2060147;28;20105;-76
2023/07/04 00:53:59;;;;;;;7.80;2.15;;;;;;;;;;2060353;28;20082;-77
2023/07/04 00:55:18;;;;;;;5.53;1.95;;;;;;;;;;2064340;28;20022;-77
2023/07/04 00:56:37;;;;;;;3.78;1.80;;;;;;;;;;2065457;28;20014;-77
2023/07/04 00:57:56;;;;;;;6.15;1.67;;;;;;;;;;2069109;28;20125;-78
2023/07/04 00:59:15;;;;;;;5.57;1.90;;;;;;;;;;2061103;28;20034;-77
2023/07/04 01:00:37;;;;;;;6.35;2.05;;;;;;;;;;2066154;28;20034;-76
2023/07/04 01:01:57;;;;;;;4.65;2.00;;;;;;;;;;2061731;28;20035;-76
2023/07/04 01:03:21;;;;;;;7.10;2.33;;;;;;;;;;2065415;28;20042;-76
2023/07/04 01:04:40;;;;;;;2.42;1.33;;;;;;;;;;2062124;28;20048;-76
2023/07/04 01:06:05;;;;;;;3.95;1.92;;;;;;;;;;2065149;28;20022;-77
2023/07/04 01:07:31;;;;;;;4.70;1.98;;;;;;;;;;2062636;28;20469;-78
2023/07/04 01:08:56;;;;;;;7.97;3.13;;;;;;;;;;2067050;28;20030;-76
2023/07/04 01:10:23;;;;;;;7.70;1.92;;;;;;;;;;2064615;28;20109;-76
2023/07/04 01:11:44;;;;;;;9.35;2.05;;;;;;;;;;2064342;28;20022;-76
2023/07/04 01:13:03;;;;;;;6.15;1.85;;;;;;;;;;2066482;28;20062;-76
2023/07/04 01:14:24;;;;;;;3.17;2.00;;;;;;;;;;2068419;28;20034;-76
2023/07/04 01:15:43;;;;;;;5.10;1.75;;;;;;;;;;2067264;28;20383;-77
2023/07/04 01:17:02;;;;;;;6.18;1.83;;;;;;;;;;2063821;28;20484;-76
2023/07/04 01:18:23;;;;;;;6.03;1.92;;;;;;;;;;2064006;28;20042;-76
2023/07/04 01:19:42;;;;;;;4.40;1.60;;;;;;;;;;2063320;28;20487;-76
2023/07/04 01:21:01;;;;;;;5.55;2.05;;;;;;;;;;2053044;28;20043;-77
2023/07/04 01:22:27;;;;;;;4.68;2.05;;;;;;;;;;2059772;28;20023;-77
2023/07/04 01:23:54;;;;;;;6.72;1.95;;;;;;;;;;2063599;28;20479;-76
2023/07/04 01:25:20;;;;;;;7.38;1.98;;;;;;;;;;2063461;28;20042;-76
2023/07/04 01:26:44;;;;;;;4.00;1.80;;;;;;;;;;2063720;28;20030;-77
2023/07/04 01:28:04;;;;;;;10.95;2.17;;;;;;;;;;2063762;28;20042;-76
2023/07/04 01:29:23;;;;;;;5.47;2.08;;;;;;;;;;2062985;28;20038;-76
2023/07/04 01:30:43;;;;;;;3.83;1.90;;;;;;;;;;2055172;28;20035;-76
2023/07/04 01:32:03;;;;;;;7.22;2.10;;;;;;;;;;2060976;28;20484;-77
2023/07/04 01:33:24;;;;;;;6.00;1.75;;;;;;;;;;2063417;28;20484;-77
2023/07/04 01:34:43;;;;;;;8.75;2.10;;;;;;;;;;2063396;28;20038;-76
2023/07/04 01:36:02;;;;;;;6.60;2.30;;;;;;;;;;2062030;28;20023;-77
2023/07/04 01:37:21;;;;;;;5.90;1.83;;;;;;;;;;2061399;28;20375;-76
2023/07/04 01:38:40;;;;;;;10.80;2.35;;;;;;;;;;2063295;28;20050;-77
2023/07/04 01:39:59;;;;;;;4.43;2.03;;;;;;;;;;2053613;28;20022;-76
2023/07/04 01:41:19;;;;;;;5.25;1.90;;;;;;;;;;2053824;28;20023;-77
2023/07/04 01:42:38;;;;;;;7.63;2.00;;;;;;;;;;2061164;28;20110;-76
2023/07/04 01:44:05;;;;;;;6.65;1.80;;;;;;;;;;2063280;28;20101;-77
2023/07/04 01:45:24;;;;;;;6.07;2.20;;;;;;;;;;2062340;28;20034;-77
2023/07/04 01:46:43;;;;;;;2.35;1.70;;;;;;;;;;2062966;28;20491;-77
2023/07/04 01:48:02;;;;;;;5.75;1.90;;;;;;;;;;2062561;28;20054;-77
2023/07/04 01:49:21;;;;;;;7.88;2.08;;;;;;;;;;2053454;28;20058;-76
2023/07/04 01:50:40;;;;;;;7.10;1.75;;;;;;;;;;2059841;28;20074;-77
2023/07/04 01:51:59;;;;;;;8.63;2.20;;;;;;;;;;2063304;28;20038;-77
2023/07/04 01:53:18;;;;;;;4.68;1.85;;;;;;;;;;2053938;28;20039;-76
2023/07/04 01:54:37;;;;;;;5.80;2.10;;;;;;;;;;2057913;28;20022;-76
2023/07/04 01:55:56;;;;;;;5.50;2.13;;;;;;;;;;2052603;28;20072;-77
2023/07/04 01:57:15;;;;;;;6.32;2.28;;;;;;;;;;2056507;28;20034;-76
2023/07/04 01:58:34;;;;;;;3.58;1.85;;;;;;;;;;2062181;28;20019;-76
2023/07/04 01:59:53;;;;;;;5.05;2.17;;;;;;;;;;2063636;28;20039;-76
2023/07/04 02:01:12;;;;;;;6.03;2.40;;;;;;;;;;2063124;28;20776;-76
2023/07/04 02:02:31;;;;;;;6.47;2.03;;;;;;;;;;2059002;28;20038;-76
2023/07/04 02:03:49;;;;;;;3.63;1.73;;;;;;;;;;2060911;28;20019;-77
2023/07/04 02:05:09;;;;;;;5.47;1.77;;;;;;;;;;2053949;28;20026;-77
2023/07/04 02:06:27;;;;;;;8.05;2.03;;;;;;;;;;2061085;28;20391;-78
2023/07/04 02:07:46;;;;;;;5.35;1.80;;;;;;;;;;2054533;28;20031;-77
2023/07/04 02:09:05;;;;;;;8.25;2.28;;;;;;;;;;2060834;28;20030;-76
2023/07/04 02:10:24;;;;;;;8.18;1.90;;;;;;;;;;2065374;28;20038;-76
2023/07/04 02:11:45;;;;;;;10.13;2.47;;;;;;;;;;2063709;28;20075;-76
2023/07/04 02:13:04;;;;;;;4.97;1.75;;;;;;;;;;2064128;28;20034;-76
2023/07/04 02:14:24;;;;;;;5.85;2.08;;;;;;;;;;2063177;28;20436;-76
2023/07/04 02:15:42;;;;;;;4.80;2.03;;;;;;;;;;2064645;28;20030;-77
2023/07/04 02:17:01;;;;;;;5.50;1.80;;;;;;;;;;2063606;28;20027;-76
2023/07/04 02:18:21;;;;;;;6.60;1.80;;;;;;;;;;2064535;28;20404;-76
2023/07/04 02:19:39;;;;;;;4.72;1.88;;;;;;;;;;2054094;28;20030;-76
2023/07/04 02:20:58;;;;;;;4.25;1.75;;;;;;;;;;2060319;28;20034;-76
2023/07/04 02:22:17;;;;;;;7.97;1.90;;;;;;;;;;2065380;28;20113;-75
2023/07/04 02:23:36;;;;;;;6.50;2.40;;;;;;;;;;2064666;28;20046;-76
2023/07/04 02:24:55;;;;;;;5.72;1.90;;;;;;;;;;2063977;28;20035;-76
2023/07/04 02:26:14;;;;;;;7.97;2.05;;;;;;;;;;2065166;28;20105;-76
2023/07/04 02:27:33;;;;;;;6.13;2.17;;;;;;;;;;2064004;28;20030;-75
2023/07/04 02:28:52;;;;;;;3.25;1.75;;;;;;;;;;2061380;28;20034;-76
2023/07/04 02:30:11;;;;;;;5.68;1.88;;;;;;;;;;2055027;28;20031;-75
2023/07/04 02:31:31;;;;;;;7.72;2.10;;;;;;;;;;2057754;28;20034;-76
2023/07/04 02:32:50;;;;;;;4.40;1.70;;;;;;;;;;2065944;28;20031;-76
2023/07/04 02:34:08;;;;;;;5.85;2.45;;;;;;;;;;2071039;28;20046;-76
2023/07/04 02:35:29;;;;;;;5.32;1.80;;;;;;;;;;2071603;28;20029;-76
2023/07/04 02:36:48;;;;;;;6.72;1.77;;;;;;;;;;2072755;28;20025;-75
2023/07/04 02:38:07;;;;;;;7.55;2.17;;;;;;;;;;2073808;28;20108;-77
2023/07/04 02:39:27;;;;;;;5.15;1.85;;;;;;;;;;2072239;28;20037;-76
2023/07/04 02:40:47;;;;;;;6.45;1.90;;;;;;;;;;2064789;28;20034;-77
2023/07/04 02:42:07;;;;;;;8.38;2.13;;;;;;;;;;2069076;28;20108;-78
2023/07/04 02:43:27;;;;;;;5.30;2.10;;;;;;;;;;2064165;28;20042;-76
2023/07/04 02:44:45;;;;;;;4.55;1.58;;;;;;;;;;2070325;28;20034;-77
2023/07/04 02:46:05;;;;;;;4.43;1.50;;;;;;;;;;2063345;28;20034;-77
2023/07/04 02:47:26;;;;;;;4.85;1.60;;;;;;;;;;2068917;28;20547;-77
2023/07/04 02:48:45;;;;;;;10.70;2.35;;;;;;;;;;2072969;28;20026;-76
2023/07/04 02:50:04;;;;;;;3.90;2.05;;;;;;;;;;2072376;28;20084;-76
2023/07/04 02:51:23;;;;;;;8.60;1.92;;;;;;;;;;2070810;28;20488;-76
2023/07/04 02:52:42;;;;;;;4.20;1.60;;;;;;;;;;2065281;28;20037;-78
2023/07/04 02:54:02;;;;;;;3.53;1.58;;;;;;;;;;2063222;28;20022;-77
2023/07/04 02:55:20;;;;;;;3.92;1.55;;;;;;;;;;2068389;28;20487;-76
2023/07/04 02:56:40;;;;;;;5.72;2.10;;;;;;;;;;2072648;28;20117;-76
2023/07/04 02:57:58;;;;;;;6.18;2.10;;;;;;;;;;2072858;28;20026;-76
2023/07/04 02:59:17;;;;;;;8.63;2.50;;;;;;;;;;2071226;28;20105;-76
2023/07/04 03:00:36;;;;;;;7.68;2.28;;;;;;;;;;2072497;28;20030;-75
2023/07/04 03:01:55;;;;;;;4.95;2.00;;;;;;;;;;2071700;28;20025;-76
2023/07/04 03:03:14;;;;;;;6.63;1.80;;;;;;;;;;2069762;28;20034;-76
2023/07/04 03:04:33;;;;;;;6.32;2.47;;;;;;;;;;2061956;28;20062;-75
2023/07/04 03:05:53;;;;;;;4.57;1.90;;;;;;;;;;2068007;28;20030;-76
2023/07/04 03:07:12;;;;;;;5.05;1.90;;;;;;;;;;2070823;28;20038;-76
2023/07/04 03:08:31;;;;;;;3.40;1.70;;;;;;;;;;2072381;28;20162;-76
2023/07/04 03:09:50;;;;;;;8.60;2.15;;;;;;;;;;2071369;28;20026;-76
2023/07/04 03:11:09;;;;;;;3.00;1.73;;;;;;;;;;2063919;28;20034;-76
2023/07/04 03:12:28;;;;;;;5.47;1.60;;;;;;;;;;2069867;28;20034;-76
2023/07/04 03:13:47;;;;;;;3.10;1.50;;;;;;;;;;2065455;28;20034;-75
2023/07/04 03:15:06;;;;;;;5.50;1.90;;;;;;;;;;2069389;28;20022;-76
2023/07/04 03:16:26;;;;;;;2.47;1.63;;;;;;;;;;2072498;28;20459;-75
2023/07/04 03:17:44;;;;;;;6.90;2.22;;;;;;;;;;2064219;28;20062;-76
2023/07/04 03:19:04;;;;;;;7.72;2.35;;;;;;;;;;2059341;28;20057;-76
2023/07/04 03:20:23;;;;;;;8.77;1.85;;;;;;;;;;2066873;28;20030;-77
2023/07/04 03:21:42;;;;;;;7.95;1.88;;;;;;;;;;2072647;28;20037;-76
2023/07/04 03:23:01;;;;;;;7.78;1.90;;;;;;;;;;2072883;28;20080;-76
2023/07/04 03:24:20;;;;;;;7.95;2.53;;;;;;;;;;2063875;28;20031;-77
2023/07/04 03:25:40;;;;;;;7.35;1.95;;;;;;;;;;2061439;28;20476;-76
2023/07/04 03:26:59;;;;;;;10.82;2.28;;;;;;;;;;2069631;28;20030;-76
2023/07/04 03:28:18;;;;;;;3.08;2.00;;;;;;;;;;2072591;28;20037;-77
2023/07/04 03:29:37;;;;;;;5.05;1.60;;;;;;;;;;2064735;28;20489;-76
2023/07/04 03:30:57;;;;;;;10.35;2.10;;;;;;;;;;2069032;28;20383;-76
2023/07/04 03:32:16;;;;;;;6.53;2.47;;;;;;;;;;2073308;28;20411;-76
2023/07/04 03:33:35;;;;;;;4.60;1.85;;;;;;;;;;2072794;28;20029;-76
2023/07/04 03:34:55;;;;;;;12.90;1.95;;;;;;;;;;2073389;28;20487;-76
2023/07/04 03:36:14;;;;;;;5.32;1.77;;;;;;;;;;2070328;28;20402;-76
2023/07/04 03:37:34;;;;;;;3.72;1.70;;;;;;;;;;2071929;28;20467;-76
2023/07/04 03:38:53;;;;;;;7.97;2.13;;;;;;;;;;2073230;28;20026;-76
2023/07/04 03:40:12;;;;;;;5.90;2.10;;;;;;;;;;2073364;28;20026;-76
2023/07/04 03:41:32;;;;;;;4.43;1.60;;;;;;;;;;2062677;28;20051;-76
2023/07/04 03:42:50;;;;;;;10.02;2.25;;;;;;;;;;2069212;28;20030;-76
2023/07/04 03:44:09;;;;;;;5.20;2.10;;;;;;;;;;2072842;28;20038;-76
2023/07/04 03:45:28;;;;;;;7.80;2.17;;;;;;;;;;2065524;28;20074;-77
2023/07/04 03:46:47;;;;;;;4.55;2.10;;;;;;;;;;2060885;28;20403;-76
2023/07/04 03:48:06;;;;;;;6.85;2.15;;;;;;;;;;2068583;28;20022;-77
2023/07/04 03:49:25;;;;;;;6.32;1.75;;;;;;;;;;2071333;28;20072;-76
2023/07/04 03:50:44;;;;;;;6.75;1.75;;;;;;;;;;2073023;28;20518;-76
2023/07/04 03:52:03;;;;;;;6.88;2.47;;;;;;;;;;2072789;28;20042;-76
2023/07/04 03:53:21;;;;;;;5.63;1.83;;;;;;;;;;2070279;28;20033;-76
2023/07/04 03:54:41;;;;;;;5.15;1.77;;;;;;;;;;2063624;28;20103;-76
2023/07/04 03:56:00;;;;;;;5.65;2.17;;;;;;;;;;2061606;28;20030;-76
2023/07/04 03:57:19;;;;;;;5.15;2.28;;;;;;;;;;2068874;28;20030;-75
2023/07/04 03:58:38;;;;;;;7.85;2.33;;;;;;;;;;2063632;28;20065;-76
2023/07/04 03:59:56;;;;;;;8.43;2.30;;;;;;;;;;2067390;28;20030;-76
2023/07/04 04:01:16;;;;;;;7.57;2.30;;;;;;;;;;2070791;28;20110;-77
2023/07/04 04:02:34;;;;;;;6.30;1.92;;;;;;;;;;2064849;28;20114;-76
2023/07/04 04:03:53;;;;;;;7.20;2.00;;;;;;;;;;2068417;28;20491;-76
2023/07/04 04:05:12;;;;;;;7.50;1.90;;;;;;;;;;2070041;28;20026;-76
2023/07/04 04:06:31;;;;;;;8.90;2.05;;;;;;;;;;2063355;28;20031;-77
2023/07/04 04:07:50;;;;;;;7.82;1.98;;;;;;;;;;2067057;28;20018;-76
2023/07/04 04:09:10;;;;;;;4.47;1.65;;;;;;;;;;2070939;28;20052;-76
2023/07/04 04:10:29;;;;;;;7.38;2.20;;;;;;;;;;2067717;28;20038;-76
2023/07/04 04:11:48;;;;;;;6.80;2.33;;;;;;;;;;2068854;28;20050;-76
2023/07/04 04:13:06;;;;;;;7.20;2.35;;;;;;;;;;2068654;28;20026;-76
2023/07/04 04:14:25;;;;;;;9.75;2.08;;;;;;;;;;2070526;28;20431;-76
2023/07/04 04:15:44;;;;;;;5.90;1.90;;;;;;;;;;2068057;28;20038;-76
2023/07/04 04:17:03;;;;;;;8.20;1.92;;;;;;;;;;2070483;28;20025;-76
2023/07/04 04:18:22;;;;;;;10.02;2.33;;;;;;;;;;2071998;28;20036;-76
2023/07/04 04:19:41;;;;;;;7.75;2.35;;;;;;;;;;2061066;28;20030;-76
2023/07/04 04:21:01;;;;;;;8.25;2.00;;;;;;;;;;2058624;28;20109;-76
2023/07/04 04:22:19;;;;;;;8.40;2.08;;;;;;;;;;2069113;28;20061;-76
2023/07/04 04:23:39;;;;;;;6.43;2.00;;;;;;;;;;2072836;28;20034;-76
2023/07/04 04:24:57;;;;;;;4.15;2.00;;;;;;;;;;2071824;28;20479;-76
2023/07/04 04:26:16;;;;;;;6.05;1.95;;;;;;;;;;2072587;28;20072;-76
2023/07/04 04:27:35;;;;;;;9.75;2.28;;;;;;;;;;2078575;28;20018;-76
2023/07/04 04:28:57;;;;;;;4.68;1.98;;;;;;;;;;2072742;28;20045;-76
2023/07/04 04:30:16;;;;;;;9.35;2.15;;;;;;;;;;2078416;28;20085;-77
2023/07/04 04:31:37;;;;;;;7.90;2.05;;;;;;;;;;2078879;28;20057;-76
2023/07/04 04:32:56;;;;;;;7.10;2.00;;;;;;;;;;2069453;28;20030;-75
2023/07/04 04:34:21;;;;;;;7.07;2.35;;;;;;;;;;2077707;28;20050;-76
2023/07/04 04:35:41;;;;;;;6.05;2.13;;;;;;;;;;2086106;28;20037;-76
2023/07/04 04:36:59;;;;;;;8.35;2.15;;;;;;;;;;2073643;28;20026;-77
2023/07/04 04:38:18;;;;;;;10.50;2.65;;;;;;;;;;2067899;28;20030;-76
2023/07/04 04:39:37;;;;;;;3.97;1.65;;;;;;;;;;2066609;28;20452;-75
2023/07/04 04:41:06;;;;;;;12.68;2.65;;;;;;;;;;2068098;28;20034;-76
2023/07/04 04:42:25;;;;;;;8.57;2.22;;;;;;;;;;2068455;28;20038;-75
2023/07/04 04:43:45;;;;;;;9.65;2.75;;;;;;;;;;2071604;28;20042;-76
2023/07/04 04:45:04;;;;;;;6.05;2.22;;;;;;;;;;2072216;28;20116;-77
2023/07/04 04:46:23;;;;;;;8.65;1.73;;;;;;;;;;2069606;28;20132;-76
2023/07/04 04:47:52;;;;;;;7.07;2.03;;;;;;;;;;2070285;28;20033;-76
2023/07/04 04:49:12;;;;;;;5.85;2.40;;;;;;;;;;2071856;28;20593;-77
2023/07/04 04:50:31;;;;;;;5.38;1.75;;;;;;;;;;2071328;28;20523;-77
2023/07/04 04:51:51;;;;;;;7.20;2.00;;;;;;;;;;2070734;28;20037;-77
2023/07/04 04:53:14;;;;;;;4.68;1.67;;;;;;;;;;2070418;28;20029;-77
2023/07/04 04:54:33;;;;;;;5.75;1.80;;;;;;;;;;2072660;28;20022;-76
2023/07/04 04:55:52;;;;;;;9.50;2.05;;;;;;;;;;2071731;28;20018;-77
2023/07/04 04:57:12;;;;;;;16.05;2.42;;;;;;;;;;2070099;28;20030;-77
2023/07/04 04:58:30;;;;;;;7.40;2.00;;;;;;;;;;2069294;28;20466;-77
2023/07/04 04:59:50;;;;;;;6.55;2.25;;;;;;;;;;2070524;28;20102;-77
2023/07/04 05:01:16;;;;;;;12.35;2.17;;;;;;;;;;2071828;28;20033;-76
2023/07/04 05:02:35;;;;;;;3.95;1.98;;;;;;;;;;2071084;28;20034;-77
2023/07/04 05:03:55;;;;;;;7.53;1.92;;;;;;;;;;2069131;28;20026;-77
2023/07/04 05:05:15;;;;;;;7.72;2.20;;;;;;;;;;2069536;28;20030;-76
2023/07/04 05:06:34;;;;;;;9.02;2.15;;;;;;;;;;2070761;28;20132;-78
2023/07/04 05:07:53;;;;;;;8.15;1.90;;;;;;;;;;2068629;28;20030;-78
2023/07/04 05:09:11;;;;;;;9.68;2.25;;;;;;;;;;2067412;28;20030;-76
2023/07/04 05:10:31;;;;;;;8.20;1.95;;;;;;;;;;2071057;28;20030;-76
2023/07/04 05:11:50;;;;;;;9.20;2.05;;;;;;;;;;2067341;28;20033;-76
2023/07/04 05:13:09;;;;;;;8.20;2.33;;;;;;;;;;2072012;28;20479;-77
2023/07/04 05:14:28;;;;;;;11.02;2.40;;;;;;;;;;2072196;28;20034;-77
2023/07/04 05:15:47;;;;;;;5.10;1.95;;;;;;;;;;2069889;28;20042;-76
2023/07/04 05:17:06;;;;;;;5.97;2.17;;;;;;;;;;2071429;28;20391;-76
2023/07/04 05:18:25;;;;;;;8.45;2.22;;;;;;;;;;2070903;28;20030;-75
2023/07/04 05:19:48;;;;;;;10.13;2.15;;;;;;;;;;2071969;28;20053;-76
2023/07/04 05:21:08;;;;;;;7.38;1.80;;;;;;;;;;2069878;28;20061;-77
2023/07/04 05:22:28;;;;;;;9.80;2.10;;;;;;;;;;2071111;28;20030;-77
2023/07/04 05:23:49;;;;;;;12.68;2.33;;;;;;;;;;2072987;28;20494;-78
2023/07/04 05:25:08;;;;;;;3.20;1.58;;;;;;;;;;2078010;28;20049;-77
2023/07/04 05:26:28;;;;;;;6.00;1.75;;;;;;;;;;2074761;28;20046;-79
2023/07/04 05:27:47;;;;;;;5.03;1.90;;;;;;;;;;2069852;28;20029;-78
2023/07/04 05:29:08;;;;;;;5.28;1.70;;;;;;;;;;2071429;28;20034;-79
2023/07/04 05:30:26;;;;;;;6.30;1.42;;;;;;;;;;2067914;28;20585;-78
2023/07/04 05:31:45;;;;;;;8.48;1.88;;;;;;;;;;2065432;28;20044;-78
2023/07/04 05:33:04;;;;;;;8.30;1.85;;;;;;;;;;2070457;28;20034;-79
2023/07/04 05:34:24;;;;;;;5.70;2.42;;;;;;;;;;2070185;28;20045;-79
2023/07/04 05:35:43;;;;;;;8.60;2.17;;;;;;;;;;2071702;28;20030;-77
2023/07/04 05:37:03;;;;;;;7.82;2.60;;;;;;;;;;2069272;28;20033;-78
2023/07/04 05:38:23;;;;;;;4.07;1.63;;;;;;;;;;2075346;28;20033;-78
2023/07/04 05:39:41;;;;;;;5.55;1.92;;;;;;;;;;2069092;28;20082;-79
2023/07/04 05:41:00;;;;;;;5.05;2.13;;;;;;;;;;2069198;28;20057;-78
2023/07/04 05:42:19;;;;;;;7.97;1.70;;;;;;;;;;2071671;28;20034;-77
2023/07/04 05:43:39;;;;;;;8.40;2.15;;;;;;;;;;2072208;28;20034;-77
2023/07/04 05:44:58;;;;;;;5.82;2.00;;;;;;;;;;2071732;28;20469;-77
2023/07/04 05:46:17;;;;;;;7.55;2.00;;;;;;;;;;2071721;28;20038;-77
2023/07/04 05:47:37;;;;;;;7.80;1.98;;;;;;;;;;2075677;28;20034;-77
2023/07/04 05:48:56;;;;;;;4.35;1.92;;;;;;;;;;2070895;28;20030;-77
2023/07/04 05:50:15;;;;;;;8.13;2.05;;;;;;;;;;2075802;28;20052;-77
2023/07/04 05:51:35;;;;;;;7.60;1.85;;;;;;;;;;2073640;28;20029;-77
2023/07/04 05:52:54;;;;;;;6.85;1.92;;;;;;;;;;2072366;28;20445;-77
2023/07/04 05:54:13;;;;;;;8.18;2.17;;;;;;;;;;2071536;28;20053;-77
2023/07/04 05:55:33;;;;;;;7.22;2.40;;;;;;;;;;2073454;28;20038;-77
2023/07/04 05:56:53;;;;;;;6.85;1.90;;;;;;;;;;2072695;28;20105;-77
2023/07/04 05:58:12;;;;;;;6.13;2.28;;;;;;;;;;2078476;28;20029;-77
2023/07/04 05:59:31;;;;;;;9.48;2.03;;;;;;;;;;2072059;28;20026;-76
2023/07/04 06:00:51;;;;;;;9.02;2.00;;;;;;;;;;2073011;28;20112;-75
2023/07/04 06:02:10;;;;;;;5.97;1.80;;;;;;;;;;2074892;28;20034;-76
2023/07/04 06:03:29;;;;;;;10.70;2.40;;;;;;;;;;2072523;28;20026;-76
2023/07/04 06:04:48;;;;;;;8.60;2.30;;;;;;;;;;2081451;28;20022;-76
2023/07/04 06:06:15;;;;;;;11.80;2.03;;;;;;;;;;2076321;28;20499;-76
2023/07/04 06:07:34;;;;;;;7.43;1.58;;;;;;;;;;2072139;28;20038;-76
2023/07/04 06:08:54;;;;;;;11.75;1.50;;;;;;;;;;2073077;28;20030;-76
2023/07/04 06:10:13;;;;;;;7.68;2.13;;;;;;;;;;2073584;28;20022;-75
2023/07/04 06:11:34;;;;;;;4.45;1.58;;;;;;;;;;2072245;28;20030;-75
2023/07/04 06:12:52;;;;;;;6.30;2.15;;;;;;;;;;2073336;28;20026;-76
2023/07/04 06:14:31;;;;;;;5.30;1.70;;;;;;;;;;2071135;28;20550;-75
2023/07/04 06:15:50;;;;;;;7.55;1.98;;;;;;;;;;2073960;28;20025;-75
2023/07/04 06:17:09;;;;;;;8.57;1.90;;;;;;;;;;2071305;28;20484;-76
2023/07/04 06:18:28;;;;;;;6.82;2.38;;;;;;;;;;2073049;28;20499;-75
2023/07/04 06:19:49;;;;;;;8.88;2.45;;;;;;;;;;2071639;28;20025;-76
2023/07/04 06:21:09;;;;;;;6.15;1.77;;;;;;;;;;2072295;28;20096;-76
2023/07/04 06:22:28;;;;;;;6.03;1.92;;;;;;;;;;2069699;28;20120;-76
2023/07/04 06:23:47;;;;;;;4.85;1.63;;;;;;;;;;2073327;28;20022;-76
2023/07/04 06:25:07;;;;;;;5.97;1.75;;;;;;;;;;2070891;28;20665;-76
2023/07/04 06:26:31;;;;;;;11.10;2.08;;;;;;;;;;2071894;28;20467;-76
2023/07/04 06:27:50;;;;;;;8.38;2.33;;;;;;;;;;2072766;28;20038;-75
2023/07/04 06:29:09;;;;;;;8.60;2.00;;;;;;;;;;2072950;28;20026;-75
2023/07/04 06:30:32;;;;;;;9.65;2.28;;;;;;;;;;2072398;28;20029;-75
2023/07/04 06:31:51;;;;;;;8.45;1.73;;;;;;;;;;2078459;28;20034;-75
2023/07/04 06:33:10;;;;;;;9.20;1.70;;;;;;;;;;2072947;28;20038;-76
2023/07/04 06:34:29;;;;;;;4.93;2.08;;;;;;;;;;2072647;28;20050;-75
2023/07/04 06:35:48;;;;;;;6.75;1.70;;;;;;;;;;2071369;28;20427;-75
2023/07/04 06:37:07;;;;;;;7.50;1.63;;;;;;;;;;2072553;28;20120;-76
2023/07/04 06:38:26;;;;;;;6.47;1.90;;;;;;;;;;2072925;28;20034;-75
2023/07/04 06:39:45;;;;;;;5.25;1.38;;;;;;;;;;2072156;28;20026;-76
2023/07/04 06:41:06;;;;;;;6.75;2.10;;;;;;;;;;2071742;28;20071;-76
2023/07/04 06:42:25;;;;;;;7.00;2.00;;;;;;;;;;2072992;28;20038;-76
2023/07/04 06:43:44;;;;;;;9.00;1.67;;;;;;;;;;2073036;28;20037;-76
2023/07/04 06:45:04;;;;;;;7.55;2.30;;;;;;;;;;2076166;28;21240;-75
2023/07/04 06:46:23;;;;;;;7.45;1.73;;;;;;;;;;2072951;28;20120;-75
2023/07/04 06:47:42;;;;;;;6.65;2.03;;;;;;;;;;2071002;28;20041;-75
2023/07/04 06:49:01;;;;;;;4.80;1.40;;;;;;;;;;2073344;28;20116;-75
2023/07/04 06:50:20;;;;;;;9.20;1.92;;;;;;;;;;2072844;28;20045;-75
2023/07/04 06:51:39;;;;;;;7.53;1.75;;;;;;;;;;2071846;28;20030;-75
2023/07/04 06:52:58;;;;;;;4.45;1.85;;;;;;;;;;2069757;28;20026;-75
2023/07/04 06:54:17;;;;;;;5.03;1.80;;;;;;;;;;2070554;28;20498;-75
2023/07/04 06:55:36;;;;;;;3.80;1.60;;;;;;;;;;2073003;28;20117;-78
2023/07/04 06:56:55;;;;;;;9.05;1.83;;;;;;;;;;2070009;28;20076;-77
2023/07/04 06:58:15;;;;;;;7.32;2.00;;;;;;;;;;2068857;28;20057;-77
2023/07/04 06:59:34;;;;;;;10.98;2.17;;;;;;;;;;2069107;28;20478;-77
2023/07/04 07:00:56;;;;;;;8.27;2.15;;;;;;;;;;2071045;28;20479;-78
2023/07/04 07:02:15;;;;;;;12.07;2.15;;;;;;;;;;2070655;28;20026;-78
2023/07/04 07:03:34;;;;;;;11.45;1.98;;;;;;;;;;2070868;28;20022;-77
2023/07/04 07:04:53;;;;;;;4.45;1.60;;;;;;;;;;2071794;28;20034;-77
2023/07/04 07:06:12;;;;;;;7.55;2.00;;;;;;;;;;2073115;28;20033;-77
2023/07/04 07:07:31;;;;;;;3.90;1.58;;;;;;;;;;2073115;28;20069;-76
2023/07/04 07:08:50;;;;;;;6.65;2.05;;;;;;;;;;2068085;28;20030;-76
2023/07/04 07:10:09;;;;;;;10.93;2.05;;;;;;;;;;2071248;28;20030;-76
2023/07/04 07:11:28;;;;;;;9.20;2.15;;;;;;;;;;2071653;28;20057;-76
2023/07/04 07:12:47;;;;;;;3.38;1.67;;;;;;;;;;2071898;28;20129;-76
2023/07/04 07:14:06;;;;;;;6.28;1.70;;;;;;;;;;2071495;28;20026;-76
2023/07/04 07:15:25;;;;;;;7.90;2.25;;;;;;;;;;2073258;28;20026;-76
2023/07/04 07:16:43;;;;;;;5.60;1.83;;;;;;;;;;2071760;28;20073;-77
2023/07/04 07:18:02;;;;;;;4.00;1.60;;;;;;;;;;2071620;28;20026;-76
2023/07/04 07:19:23;;;;;;;3.08;1.50;;;;;;;;;;2072194;28;20054;-76
2023/07/04 07:20:42;;;;;;;8.57;1.90;;;;;;;;;;2070892;28;20022;-76
2023/07/04 07:22:01;;;;;;;4.45;1.85;;;;;;;;;;2069602;28;20037;-75
2023/07/04 07:23:21;;;;;;;6.28;2.17;;;;;;;;;;2069012;28;20057;-75
2023/07/04 07:24:40;;;;;;;5.28;1.60;;;;;;;;;;2069936;28;20030;-76
2023/07/04 07:26:00;;;;;;;5.07;2.20;;;;;;;;;;2072580;28;20030;-76
2023/07/04 07:27:18;;;;;;;6.68;2.00;;;;;;;;;;2070637;28;20050;-76
2023/07/04 07:28:39;;;;;;;5.65;1.80;;;;;;;;;;2067941;28;20072;-76
2023/07/04 07:29:58;;;;;;;3.33;1.52;;;;;;;;;;2072874;28;20029;-76
2023/07/04 07:31:18;;;;;;;5.65;1.67;;;;;;;;;;2070378;28;20454;-77
2023/07/04 07:32:37;;;;;;;7.95;2.22;;;;;;;;;;2071497;28;20057;-76
2023/07/04 07:33:56;;;;;;;7.35;1.95;;;;;;;;;;2070121;28;20038;-77
2023/07/04 07:35:15;;;;;;;9.95;2.00;;;;;;;;;;2073026;28;20018;-76
2023/07/04 07:36:39;;;;;;;6.47;1.88;;;;;;;;;;2071368;28;20551;-76
2023/07/04 07:37:58;;;;;;;6.07;1.70;;;;;;;;;;2057817;28;20213;-76
2023/07/04 07:39:17;;;;;;;5.18;1.90;;;;;;;;;;2066173;28;20033;-75
2023/07/04 07:40:36;;;;;;;7.47;1.77;;;;;;;;;;2072462;28;20327;-76
2023/07/04 07:41:55;;;;;;;7.00;1.73;;;;;;;;;;2065172;28;20042;-74
2023/07/04 07:43:13;;;;;;;6.05;1.83;;;;;;;;;;2076552;28;20042;-77
2023/07/04 07:44:33;;;;;;;7.28;1.85;;;;;;;;;;2071474;28;20042;-76
2023/07/04 07:45:52;;;;;;;8.10;1.80;;;;;;;;;;2072601;28;20026;-77
2023/07/04 07:47:12;;;;;;;7.07;1.80;;;;;;;;;;2077935;28;20046;-76
2023/07/04 07:48:31;;;;;;;4.05;1.70;;;;;;;;;;2075959;28;20375;-76
2023/07/04 07:49:50;;;;;;;3.13;1.65;;;;;;;;;;2072504;28;20037;-76
2023/07/04 07:51:12;;;;;;;4.00;1.58;;;;;;;;;;2074816;28;20022;-76
2023/07/04 07:52:31;;;;;;;6.10;1.73;;;;;;;;;;2072517;28;20136;-76
2023/07/04 07:53:50;;;;;;;2.75;1.20;;;;;;;;;;2073558;28;20026;-76
2023/07/04 07:55:09;;;;;;;5.22;1.70;;;;;;;;;;2071677;28;20034;-76
2023/07/04 07:56:33;;;;;;;9.43;1.70;;;;;;;;;;2063132;28;20027;-76
2023/07/04 07:57:52;;;;;;;5.55;1.13;;;;;;;;;;2069758;28;20402;-77